createdAt,value
2022-11-13T00:00:55.543Z,102661.19
2022-11-13T00:03:22.043Z,102646.56
2022-11-13T00:05:48.365Z,102641.53
2022-11-13T00:08:14.839Z,102652.50
2022-11-13T00:10:41.152Z,102642.06
2022-11-13T00:13:07.457Z,102629.97
2022-11-13T00:15:33.790Z,102634.38
2022-11-13T00:18:02.004Z,102633.09
2022-11-13T00:20:28.421Z,102632.63
2022-11-13T00:22:54.858Z,102632.09
2022-11-13T00:25:21.153Z,102638.50
2022-11-13T00:27:47.441Z,102632.22
2022-11-13T00:30:18.927Z,102626.88
2022-11-13T00:32:45.687Z,102616.25
2022-11-13T00:35:12.014Z,102618.78
2022-11-13T00:37:38.312Z,102618.94
2022-11-13T00:40:05.302Z,102618.31
2022-11-13T00:42:31.577Z,102623.84
2022-11-13T00:44:57.854Z,102626.38
2022-11-13T00:47:24.131Z,102631.94
2022-11-13T00:49:50.412Z,102632.94
2022-11-13T00:52:16.706Z,102634.34
2022-11-13T00:54:42.981Z,102629.59
2022-11-13T00:57:09.262Z,102632.66
2022-11-13T00:59:35.570Z,102637.72
2022-11-13T01:02:01.909Z,102638.06
2022-11-13T01:04:28.869Z,102631.44
2022-11-13T01:06:55.578Z,102634.88
2022-11-13T01:09:21.941Z,102629.03
2022-11-13T01:11:48.214Z,102623.06
2022-11-13T01:14:14.664Z,102625.63
2022-11-13T01:16:41.055Z,102619.63
2022-11-13T01:19:07.662Z,102618.72
2022-11-13T01:21:33.957Z,102623.81
2022-11-13T01:24:01.445Z,102616.38
2022-11-13T01:26:29.652Z,102611.34
2022-11-13T01:28:57.828Z,102607.88
2022-11-13T01:31:26.148Z,102606.97
2022-11-13T01:33:52.606Z,102606.72
2022-11-13T01:36:23.062Z,102598.44
2022-11-13T01:38:49.919Z,102605.56
2022-11-13T01:41:23.418Z,102594.38
2022-11-13T01:43:51.133Z,102593.38
2022-11-13T01:46:21.413Z,102590.78
2022-11-13T01:49:02.814Z,102590.69
2022-11-13T01:51:45.263Z,102596.59
2022-11-13T01:54:16.054Z,102593.56
2022-11-13T01:56:43.539Z,102593.34
2022-11-13T01:59:16.916Z,102588.16
2022-11-13T02:01:43.322Z,102586.97
2022-11-13T02:04:09.734Z,102582.63
2022-11-13T02:06:45.813Z,102580.06
2022-11-13T02:09:14.409Z,102584.69
2022-11-13T02:11:41.393Z,102581.09
2022-11-13T02:14:09.150Z,102581.88
2022-11-13T02:16:37.715Z,102585.25
2022-11-13T02:19:10.267Z,102582.81
2022-11-13T02:22:08.166Z,102580.22
2022-11-13T02:24:44.657Z,102578.59
2022-11-13T02:27:32.702Z,102574.44
2022-11-13T02:29:59.002Z,102564.09
2022-11-13T02:32:25.280Z,102576.25
2022-11-13T02:34:51.622Z,102575.41
2022-11-13T02:37:18.319Z,102571.31
2022-11-13T02:39:44.593Z,102571.41
2022-11-13T02:42:10.931Z,102570.72
2022-11-13T02:44:37.270Z,102570.69
2022-11-13T02:47:03.673Z,102577.66
2022-11-13T02:49:30.040Z,102570.72
2022-11-13T02:51:56.337Z,102568.44
2022-11-13T02:54:22.733Z,102572.78
2022-11-13T02:56:49.023Z,102571.78
2022-11-13T02:59:15.372Z,102572.72
2022-11-13T03:01:41.756Z,102567.91
2022-11-13T03:04:08.132Z,102574.06
2022-11-13T03:06:34.410Z,102566.28
2022-11-13T03:09:00.678Z,102567.03
2022-11-13T03:11:26.953Z,102568.13
2022-11-13T03:13:53.345Z,102564.72
2022-11-13T03:16:19.680Z,102563.19
2022-11-13T03:18:45.988Z,102575.28
2022-11-13T03:21:14.580Z,102570.28
2022-11-13T03:23:42.411Z,102561.78
2022-11-13T03:26:12.560Z,102559.31
2022-11-13T03:28:38.876Z,102544.47
2022-11-13T03:31:05.790Z,102539.94
2022-11-13T03:33:32.714Z,102545.13
2022-11-13T03:35:59.006Z,102541.59
2022-11-13T03:38:25.646Z,102534.97
2022-11-13T03:40:52.371Z,102532.53
2022-11-13T03:43:18.950Z,102534.06
2022-11-13T03:45:47.104Z,102532.38
2022-11-13T03:48:15.244Z,102522.44
2022-11-13T03:50:48.137Z,102527.69
2022-11-13T03:53:14.844Z,102529.81
2022-11-13T03:55:42.183Z,102519.25
2022-11-13T03:58:08.571Z,102512.59
2022-11-13T04:00:35.132Z,102521.63
2022-11-13T04:03:01.497Z,102518.44
2022-11-13T04:05:27.966Z,102507.78
2022-11-13T04:07:54.457Z,102516.00
2022-11-13T04:10:20.856Z,102511.78
2022-11-13T04:12:47.367Z,102509.47
2022-11-13T04:15:13.736Z,102519.16
2022-11-13T04:17:40.212Z,102517.78
2022-11-13T04:20:07.259Z,102509.22
2022-11-13T04:22:33.554Z,102514.53
2022-11-13T04:25:00.002Z,102512.38
2022-11-13T04:27:26.340Z,102521.22
2022-11-13T04:29:53.100Z,102517.69
2022-11-13T04:32:19.361Z,102517.56
2022-11-13T04:34:45.625Z,102516.81
2022-11-13T04:37:11.934Z,102515.00
2022-11-13T04:39:38.213Z,102522.19
2022-11-13T04:42:23.351Z,102520.53
2022-11-13T04:44:49.674Z,102515.59
2022-11-13T04:47:15.972Z,102517.72
2022-11-13T04:49:42.328Z,102511.91
2022-11-13T04:52:08.626Z,102517.63
2022-11-13T04:54:35.209Z,102522.78
2022-11-13T04:57:01.485Z,102519.66
2022-11-13T04:59:27.754Z,102514.81
2022-11-13T05:01:55.663Z,102522.84
2022-11-13T05:04:22.510Z,102517.84
2022-11-13T05:06:49.106Z,102511.34
2022-11-13T05:09:16.091Z,102514.81
2022-11-13T05:11:42.460Z,102515.84
2022-11-13T05:14:11.743Z,102513.50
2022-11-13T05:16:38.364Z,102510.22
2022-11-13T05:19:06.808Z,102508.44
2022-11-13T05:21:34.638Z,102507.56
2022-11-13T05:24:01.014Z,102503.91
2022-11-13T05:26:27.391Z,102497.19
2022-11-13T05:28:56.942Z,102492.06
2022-11-13T05:31:23.274Z,102500.00
2022-11-13T05:33:49.677Z,102492.25
2022-11-13T05:36:18.292Z,102491.28
2022-11-13T05:38:45.463Z,102493.09
2022-11-13T05:41:13.847Z,102493.81
2022-11-13T05:43:40.407Z,102498.97
2022-11-13T05:46:24.439Z,102489.66
2022-11-13T05:48:56.374Z,102480.88
2022-11-13T05:51:28.714Z,102484.00
2022-11-13T05:53:55.519Z,102486.69
2022-11-13T05:56:40.403Z,102483.44
2022-11-13T05:59:06.780Z,102485.84
2022-11-13T06:01:36.165Z,102484.41
2022-11-13T06:04:03.762Z,102491.22
2022-11-13T06:06:31.316Z,102487.63
2022-11-13T06:09:00.460Z,102483.28
2022-11-13T06:11:29.284Z,102485.09
2022-11-13T06:13:56.971Z,102474.34
2022-11-13T06:16:26.318Z,102472.81
2022-11-13T06:18:58.051Z,102479.72
2022-11-13T06:21:27.578Z,102469.47
2022-11-13T06:23:54.215Z,102470.25
2022-11-13T06:26:23.739Z,102467.88
2022-11-13T06:28:50.174Z,102469.34
2022-11-13T06:31:22.933Z,102464.47
2022-11-13T06:33:49.656Z,102466.88
2022-11-13T06:36:19.011Z,102468.59
2022-11-13T06:38:45.995Z,102468.50
2022-11-13T06:41:14.410Z,102465.16
2022-11-13T06:43:41.325Z,102467.63
2022-11-13T06:46:13.971Z,102474.63
2022-11-13T06:48:40.400Z,102469.34
2022-11-13T06:51:09.512Z,102466.03
2022-11-13T06:53:35.817Z,102466.22
2022-11-13T06:56:06.096Z,102468.91
2022-11-13T06:58:33.055Z,102474.06
2022-11-13T07:01:09.124Z,102472.44
2022-11-13T07:03:35.966Z,102479.44
2022-11-13T07:06:07.580Z,102478.69
2022-11-13T07:08:34.678Z,102479.63
2022-11-13T07:11:01.392Z,102480.41
2022-11-13T07:13:28.722Z,102485.69
2022-11-13T07:15:55.017Z,102493.69
2022-11-13T07:18:24.165Z,102491.22
2022-11-13T07:20:50.722Z,102494.75
2022-11-13T07:23:16.997Z,102492.28
2022-11-13T07:25:43.287Z,102492.47
2022-11-13T07:28:09.586Z,102490.03
2022-11-13T07:30:35.893Z,102490.25
2022-11-13T07:33:05.585Z,102490.31
2022-11-13T07:35:31.873Z,102496.47
2022-11-13T07:37:59.003Z,102490.34
2022-11-13T07:40:25.920Z,102488.09
2022-11-13T07:42:59.829Z,102484.78
2022-11-13T07:45:27.847Z,102487.31
2022-11-13T07:48:04.482Z,102493.63
2022-11-13T07:50:33.283Z,102496.22
2022-11-13T07:53:05.542Z,102493.66
2022-11-13T07:55:33.937Z,102501.50
2022-11-13T07:58:01.012Z,102502.63
2022-11-13T08:00:28.774Z,102499.28
2022-11-13T08:02:55.585Z,102504.63
2022-11-13T08:05:22.304Z,102503.94
2022-11-13T08:07:51.347Z,102510.03
2022-11-13T08:10:19.328Z,102510.28
2022-11-13T08:12:45.950Z,102504.88
2022-11-13T08:15:13.641Z,102510.16
2022-11-13T08:17:40.289Z,102511.41
2022-11-13T08:20:07.917Z,102515.22
2022-11-13T08:22:34.281Z,102520.44
2022-11-13T08:25:01.117Z,102513.47
2022-11-13T08:27:27.501Z,102515.47
2022-11-13T08:29:53.936Z,102519.19
2022-11-13T08:32:20.458Z,102520.41
2022-11-13T08:34:46.792Z,102523.94
2022-11-13T08:37:13.092Z,102519.34
2022-11-13T08:39:39.358Z,102515.22
2022-11-13T08:42:05.748Z,102517.75
2022-11-13T08:44:35.061Z,102510.91
2022-11-13T08:47:01.385Z,102511.88
2022-11-13T08:49:27.678Z,102516.91
2022-11-13T08:51:53.961Z,102521.16
2022-11-13T08:54:20.768Z,102517.59
2022-11-13T08:56:53.002Z,102523.25
2022-11-13T08:59:23.517Z,102519.66
2022-11-13T09:01:50.314Z,102515.66
2022-11-13T09:04:16.599Z,102514.31
2022-11-13T09:06:42.915Z,102521.41
2022-11-13T09:09:09.257Z,102519.41
2022-11-13T09:11:35.560Z,102521.94
2022-11-13T09:14:01.893Z,102516.59
2022-11-13T09:16:28.365Z,102520.03
2022-11-13T09:18:54.636Z,102520.09
2022-11-13T09:21:20.980Z,102521.59
2022-11-13T09:23:47.300Z,102525.94
2022-11-13T09:26:13.737Z,102536.59
2022-11-13T09:28:40.055Z,102534.66
2022-11-13T09:31:06.796Z,102529.41
2022-11-13T09:33:34.122Z,102527.72
2022-11-13T09:36:00.569Z,102517.28
2022-11-13T09:38:27.151Z,102516.50
2022-11-13T09:41:17.252Z,102512.44
2022-11-13T09:43:53.035Z,102514.75
2022-11-13T09:46:42.921Z,102517.53
2022-11-13T09:49:09.182Z,102511.50
2022-11-13T09:51:37.937Z,102507.09
2022-11-13T09:54:07.535Z,102513.94
2022-11-13T09:57:10.333Z,102518.50
2022-11-13T10:00:02.627Z,102520.13
2022-11-13T10:03:06.724Z,102519.63
2022-11-13T10:05:54.267Z,102514.69
2022-11-13T10:08:43.866Z,102509.66
2022-11-13T10:11:25.691Z,102515.81
2022-11-13T10:14:01.493Z,102516.06
2022-11-13T10:16:40.984Z,102515.13
2022-11-13T10:19:15.270Z,102514.09
2022-11-13T10:21:48.097Z,102519.44
2022-11-13T10:24:41.927Z,102510.72
2022-11-13T10:27:10.748Z,102513.47
2022-11-13T10:29:37.785Z,102509.13
2022-11-13T10:32:18.497Z,102509.34
2022-11-13T10:35:07.771Z,102509.34
2022-11-13T10:37:55.273Z,102505.00
2022-11-13T10:40:32.195Z,102500.88
2022-11-13T10:43:26.024Z,102500.97
2022-11-13T10:45:58.555Z,102493.03
2022-11-13T10:48:34.048Z,102498.00
2022-11-13T10:51:26.318Z,102482.75
2022-11-13T10:53:53.690Z,102483.63
2022-11-13T10:56:36.017Z,102490.69
2022-11-13T10:59:14.000Z,102490.72
2022-11-13T11:01:42.170Z,102488.22
2022-11-13T11:04:27.339Z,102489.09
2022-11-13T11:07:19.216Z,102487.41
2022-11-13T11:09:43.265Z,102479.59
2022-11-13T11:12:16.334Z,102477.84
2022-11-13T11:15:05.549Z,102475.41
2022-11-13T11:17:38.250Z,102467.78
2022-11-13T11:20:16.548Z,102456.53
2022-11-13T11:22:45.700Z,102447.19
2022-11-13T11:25:30.943Z,102437.81
2022-11-13T11:28:07.030Z,102438.72
2022-11-13T11:30:43.984Z,102437.16
2022-11-13T11:33:19.636Z,102433.63
2022-11-13T11:35:55.151Z,102432.69
2022-11-13T11:38:28.810Z,102423.97
2022-11-13T11:41:14.960Z,102424.03
2022-11-13T11:43:43.622Z,102422.47
2022-11-13T11:46:16.079Z,102415.47
2022-11-13T11:48:42.399Z,102421.66
2022-11-13T11:51:32.458Z,102419.78
2022-11-13T11:54:04.849Z,102417.19
2022-11-13T11:56:41.880Z,102420.66
2022-11-13T11:59:45.107Z,102410.94
2022-11-13T12:02:37.785Z,102412.88
2022-11-13T12:05:20.181Z,102410.22
2022-11-13T12:08:25.617Z,102402.75
2022-11-13T12:11:26.310Z,102393.38
2022-11-13T12:14:01.627Z,102385.53
2022-11-13T12:16:31.916Z,102382.88
2022-11-13T12:19:10.805Z,102381.09
2022-11-13T12:21:57.103Z,102384.66
2022-11-13T12:24:58.201Z,102374.53
2022-11-13T12:27:42.543Z,102373.75
2022-11-13T12:30:13.514Z,102370.28
2022-11-13T12:33:08.091Z,102364.28
2022-11-13T12:35:35.537Z,102361.69
2022-11-13T12:38:01.782Z,102363.53
2022-11-13T12:40:36.599Z,102361.88
2022-11-13T12:43:38.533Z,102358.16
2022-11-13T12:46:10.105Z,102357.38
2022-11-13T12:48:45.440Z,102348.66
2022-11-13T12:51:17.645Z,102345.31
2022-11-13T12:53:46.090Z,102335.84
2022-11-13T12:56:28.573Z,102342.84
2022-11-13T12:59:31.648Z,102339.97
2022-11-13T13:02:15.904Z,102335.59
2022-11-13T13:05:19.753Z,102328.78
2022-11-13T13:08:05.281Z,102326.22
2022-11-13T13:10:41.203Z,102317.56
2022-11-13T13:13:32.010Z,102314.94
2022-11-13T13:16:02.698Z,102312.38
2022-11-13T13:18:39.796Z,102315.09
2022-11-13T13:21:07.745Z,102302.13
2022-11-13T13:23:36.233Z,102295.94
2022-11-13T13:26:21.251Z,102296.00
2022-11-13T13:28:55.561Z,102291.03
2022-11-13T13:31:38.325Z,102288.56
2022-11-13T13:34:19.262Z,102288.50
2022-11-13T13:37:03.411Z,102296.22
2022-11-13T13:39:38.238Z,102289.25
2022-11-13T13:42:16.996Z,102281.53
2022-11-13T13:44:55.933Z,102283.31
2022-11-13T13:47:32.108Z,102284.34
2022-11-13T13:49:58.812Z,102275.78
2022-11-13T13:52:34.796Z,102292.19
2022-11-13T13:55:03.741Z,102280.81
2022-11-13T13:57:30.386Z,102282.63
2022-11-13T13:59:57.865Z,102282.72
2022-11-13T14:02:24.719Z,102281.75
2022-11-13T14:04:53.629Z,102277.47
2022-11-13T14:07:24.945Z,102273.97
2022-11-13T14:10:05.461Z,102279.09
2022-11-13T14:12:31.804Z,102274.00
2022-11-13T14:14:58.198Z,102272.31
2022-11-13T14:17:25.654Z,102269.72
2022-11-13T14:19:53.640Z,102264.53
2022-11-13T14:22:21.136Z,102272.34
2022-11-13T14:24:49.903Z,102259.34
2022-11-13T14:27:20.790Z,102260.16
2022-11-13T14:29:50.028Z,102267.97
2022-11-13T14:32:22.106Z,102264.53
2022-11-13T14:34:51.606Z,102252.47
2022-11-13T14:37:35.612Z,102255.97
2022-11-13T14:40:14.357Z,102241.22
2022-11-13T14:42:46.887Z,102242.19
2022-11-13T14:45:17.866Z,102242.19
2022-11-13T14:47:55.027Z,102242.19
2022-11-13T14:50:25.294Z,102250.00
2022-11-13T14:53:02.077Z,102236.22
2022-11-13T14:55:37.281Z,102239.75
2022-11-13T14:58:04.331Z,102244.88
2022-11-13T15:00:38.124Z,102244.03
2022-11-13T15:03:06.369Z,102238.72
2022-11-13T15:05:32.927Z,102240.41
2022-11-13T15:07:59.948Z,102239.44
2022-11-13T15:10:29.028Z,102242.09
2022-11-13T15:12:55.546Z,102244.75
2022-11-13T15:15:27.569Z,102232.66
2022-11-13T15:17:55.387Z,102223.16
2022-11-13T15:20:27.633Z,102227.53
2022-11-13T15:22:55.024Z,102226.75
2022-11-13T15:25:23.544Z,102224.13
2022-11-13T15:27:50.521Z,102221.56
2022-11-13T15:30:17.139Z,102218.94
2022-11-13T15:32:44.063Z,102222.47
2022-11-13T15:35:15.378Z,102219.06
2022-11-13T15:37:41.689Z,102220.84
2022-11-13T15:40:08.473Z,102214.00
2022-11-13T15:42:36.253Z,102219.25
2022-11-13T15:45:05.948Z,102203.53
2022-11-13T15:47:36.827Z,102210.41
2022-11-13T15:50:14.462Z,102210.34
2022-11-13T15:52:45.012Z,102213.97
2022-11-13T15:55:26.476Z,102206.16
2022-11-13T15:57:53.669Z,102206.16
2022-11-13T16:00:25.521Z,102201.06
2022-11-13T16:02:55.194Z,102200.25
2022-11-13T16:05:27.252Z,102201.94
2022-11-13T16:07:54.593Z,102201.06
2022-11-13T16:10:22.682Z,102199.34
2022-11-13T16:12:49.010Z,102196.78
2022-11-13T16:15:16.999Z,102197.72
2022-11-13T16:17:50.531Z,102195.16
2022-11-13T16:20:17.708Z,102185.56
2022-11-13T16:22:44.688Z,102193.38
2022-11-13T16:25:13.514Z,102187.34
2022-11-13T16:27:39.946Z,102183.06
2022-11-13T16:30:10.327Z,102175.25
2022-11-13T16:32:36.624Z,102176.06
2022-11-13T16:35:02.931Z,102175.25
2022-11-13T16:37:29.201Z,102181.28
2022-11-13T16:39:56.334Z,102182.22
2022-11-13T16:42:24.140Z,102182.28
2022-11-13T16:44:53.438Z,102184.81
2022-11-13T16:47:23.677Z,102170.94
2022-11-13T16:49:50.644Z,102179.63
2022-11-13T16:52:17.942Z,102173.56
2022-11-13T16:54:44.574Z,102164.91
2022-11-13T16:57:12.749Z,102156.28
2022-11-13T16:59:39.639Z,102151.97
2022-11-13T17:02:17.587Z,102162.44
2022-11-13T17:04:44.591Z,102150.34
2022-11-13T17:07:13.008Z,102158.19
2022-11-13T17:09:44.236Z,102154.72
2022-11-13T17:12:11.279Z,102153.88
2022-11-13T17:14:38.654Z,102153.88
2022-11-13T17:17:06.692Z,102150.47
2022-11-13T17:19:33.406Z,102145.25
2022-11-13T17:22:00.004Z,102159.13
2022-11-13T17:24:26.364Z,102142.63
2022-11-13T17:26:52.635Z,102146.09
2022-11-13T17:29:19.960Z,102140.88
2022-11-13T17:31:46.257Z,102130.47
2022-11-13T17:34:12.524Z,102138.31
2022-11-13T17:36:38.805Z,102141.00
2022-11-13T17:39:05.143Z,102138.31
2022-11-13T17:41:31.561Z,102134.03
2022-11-13T17:44:01.244Z,102134.91
2022-11-13T17:46:28.197Z,102130.56
2022-11-13T17:48:54.671Z,102131.44
2022-11-13T17:51:21.239Z,102125.38
2022-11-13T17:53:47.595Z,102128.03
2022-11-13T17:56:14.108Z,102121.09
2022-11-13T17:58:42.582Z,102128.00
2022-11-13T18:01:17.596Z,102119.38
2022-11-13T18:03:44.003Z,102113.25
2022-11-13T18:06:13.690Z,102110.66
2022-11-13T18:08:43.194Z,102108.94
2022-11-13T18:11:24.786Z,102110.72
2022-11-13T18:13:51.984Z,102104.63
2022-11-13T18:16:29.410Z,102109.84
2022-11-13T18:18:57.771Z,102108.97
2022-11-13T18:21:27.778Z,102101.09
2022-11-13T18:23:59.882Z,102107.28
2022-11-13T18:26:28.014Z,102104.59
2022-11-13T18:28:54.649Z,102106.34
2022-11-13T18:31:21.291Z,102095.91
2022-11-13T18:33:47.757Z,102089.00
2022-11-13T18:36:14.857Z,102091.63
2022-11-13T18:38:43.273Z,102091.63
2022-11-13T18:41:12.575Z,102093.38
2022-11-13T18:43:38.999Z,102095.16
2022-11-13T18:46:07.482Z,102095.16
2022-11-13T18:48:36.349Z,102089.03
2022-11-13T18:51:09.404Z,102095.16
2022-11-13T18:53:36.552Z,102092.56
2022-11-13T18:56:07.015Z,102083.84
2022-11-13T18:58:37.524Z,102081.19
2022-11-13T19:01:18.883Z,102077.69
2022-11-13T19:04:08.256Z,102075.97
2022-11-13T19:06:36.567Z,102071.69
2022-11-13T19:09:07.130Z,102063.06
2022-11-13T19:11:34.024Z,102062.19
2022-11-13T19:14:00.694Z,102063.13
2022-11-13T19:16:31.232Z,102059.72
2022-11-13T19:18:59.614Z,102053.63
2022-11-13T19:21:28.753Z,102053.72
2022-11-13T19:23:55.728Z,102050.28
2022-11-13T19:26:22.747Z,102048.53
2022-11-13T19:28:51.821Z,102049.47
2022-11-13T19:31:24.941Z,102048.53
2022-11-13T19:33:59.428Z,102048.50
2022-11-13T19:36:28.067Z,102050.09
2022-11-13T19:38:55.684Z,102043.13
2022-11-13T19:41:23.161Z,102038.78
2022-11-13T19:43:49.626Z,102043.97
2022-11-13T19:46:17.677Z,102048.31
2022-11-13T19:48:45.675Z,102050.06
2022-11-13T19:51:14.673Z,102047.41
2022-11-13T19:53:47.650Z,102047.38
2022-11-13T19:56:15.772Z,102051.75
2022-11-13T19:58:44.168Z,102046.59
2022-11-13T20:01:12.453Z,102044.00
2022-11-13T20:03:39.249Z,102052.66
2022-11-13T20:06:06.763Z,102055.28
2022-11-13T20:08:37.425Z,102045.72
2022-11-13T20:11:05.739Z,102050.78
2022-11-13T20:13:34.329Z,102056.03
2022-11-13T20:16:01.350Z,102042.84
2022-11-13T20:18:28.058Z,102040.28
2022-11-13T20:20:55.189Z,102035.06
2022-11-13T20:23:21.779Z,102026.38
2022-11-13T20:26:09.986Z,102028.06
2022-11-13T20:28:36.363Z,102021.16
2022-11-13T20:31:23.122Z,102016.00
2022-11-13T20:33:50.702Z,102014.38
2022-11-13T20:36:17.410Z,102014.38
2022-11-13T20:38:49.374Z,102010.94
2022-11-13T20:41:15.738Z,102006.53
2022-11-13T20:43:42.558Z,102010.03
2022-11-13T20:46:11.544Z,102004.00
2022-11-13T20:48:38.382Z,102005.69
2022-11-13T20:51:21.881Z,102001.44
2022-11-13T20:53:49.208Z,102008.41
2022-11-13T20:56:16.945Z,102000.56
2022-11-13T20:58:43.283Z,101996.28
2022-11-13T21:01:18.506Z,101998.00
2022-11-13T21:03:45.754Z,101994.53
2022-11-13T21:06:15.516Z,101990.19
2022-11-13T21:08:42.180Z,101994.53
2022-11-13T21:11:13.988Z,101991.91
2022-11-13T21:13:40.279Z,101992.81
2022-11-13T21:16:08.231Z,102002.34
2022-11-13T21:18:35.224Z,101998.88
2022-11-13T21:21:06.674Z,102000.63
2022-11-13T21:23:33.035Z,102001.56
2022-11-13T21:26:04.438Z,101991.94
2022-11-13T21:28:33.652Z,101989.34
2022-11-13T21:31:05.974Z,101986.72
2022-11-13T21:33:40.143Z,101978.91
2022-11-13T21:36:13.345Z,101979.78
2022-11-13T21:38:40.183Z,101983.19
2022-11-13T21:41:24.486Z,101980.56
2022-11-13T21:43:58.388Z,101978.78
2022-11-13T21:46:27.868Z,101981.44
2022-11-13T21:48:59.782Z,101972.72
2022-11-13T21:51:26.787Z,101968.41
2022-11-13T21:53:53.113Z,101974.47
2022-11-13T21:56:19.509Z,101968.41
2022-11-13T21:58:45.829Z,101965.75
2022-11-13T22:01:13.232Z,101962.31
2022-11-13T22:03:40.272Z,101957.13
2022-11-13T22:06:25.321Z,101953.63
2022-11-13T22:08:59.589Z,101947.53
2022-11-13T22:11:28.178Z,101951.00
2022-11-13T22:13:55.179Z,101952.72
2022-11-13T22:16:22.279Z,101946.63
2022-11-13T22:18:52.565Z,101950.03
2022-11-13T22:21:18.839Z,101940.53
2022-11-13T22:23:45.133Z,101941.38
2022-11-13T22:26:13.809Z,101944.84
2022-11-13T22:28:41.621Z,101935.31
2022-11-13T22:31:11.434Z,101930.97
2022-11-13T22:33:37.708Z,101931.81
2022-11-13T22:36:12.537Z,101928.41
2022-11-13T22:38:40.155Z,101937.03
2022-11-13T22:41:10.629Z,101933.59
2022-11-13T22:43:41.319Z,101938.75
2022-11-13T22:46:10.720Z,101936.09
2022-11-13T22:48:38.555Z,101935.19
2022-11-13T22:51:13.840Z,101928.28
2022-11-13T22:53:41.835Z,101926.50
2022-11-13T22:56:11.194Z,101923.09
2022-11-13T22:58:37.667Z,101927.38
2022-11-13T23:01:06.405Z,101917.81
2022-11-13T23:03:35.970Z,101914.28
2022-11-13T23:06:02.745Z,101910.81
2022-11-13T23:08:31.124Z,101916.06
2022-11-13T23:10:57.762Z,101908.22
2022-11-13T23:13:25.181Z,101891.69
2022-11-13T23:15:51.565Z,101893.41
2022-11-13T23:18:17.868Z,101884.75
2022-11-13T23:20:44.431Z,101885.63
2022-11-13T23:23:10.766Z,101887.31
2022-11-13T23:25:37.127Z,101884.72
2022-11-13T23:28:03.600Z,101878.63
2022-11-13T23:30:29.905Z,101875.94
2022-11-13T23:32:56.187Z,101868.16
2022-11-13T23:35:22.566Z,101867.31
2022-11-13T23:37:48.849Z,101860.38
2022-11-13T23:40:15.144Z,101865.50
2022-11-13T23:42:54.639Z,101864.66
2022-11-13T23:45:21.827Z,101871.50
2022-11-13T23:47:48.104Z,101870.69
2022-11-13T23:50:14.603Z,101865.38
2022-11-13T23:52:40.884Z,101865.44
2022-11-13T23:55:07.719Z,101855.97
2022-11-13T23:57:34.032Z,101841.25
